Atlanta, GA (31131)

1:15 AM EDT on July 27, 2016 (GMT -0400)
Camp Creek Pkwy / Fulton | | Change Station

Elev 876 ft 33.70 °N, 84.59 °W | Updated 27 seconds ago

Clear
Clear
76.4 °F
Feels Like 76 °F
N
4.8
Wind Variable Wind from WSW
Gusts 5.5 mph

Today
High -- | Low -- °F
--% Chance of Precip.
Yesterday
High -- | Low -- °F
Precip. -- in
Pressure 30.04 in
Visibility 10.0 miles
Clouds Clear
Heat Index 76 °F
Dew Point 76 °F
Humidity 98%
Rainfall 0.00 in
Snow Depth Not available.
6:47 AM 8:41 PM
Waning Gibbous, 47% visible
METAR KFTY 270453Z 22005KT 10SM CLR 27/22 A3007 RMK AO2 SLP170 T02670217 403560228
Pressure 30.04 in
Visibility 10.0 miles
Clouds Clear
Heat Index 76 °F
Dew Point 76 °F
Humidity 98%
Rainfall 0.00 in
Snow Depth Not available.
6:47 AM 8:41 PM
Waning Gibbous, 47% visible
METAR KFTY 270453Z 22005KT 10SM CLR 27/22 A3007 RMK AO2 SLP170 T02670217 403560228

10-Day Weather Forecast

Almanac

Astronomy

Jul. 27, 2016 Rise Set
Actual Time
Civil Twilight
Nautical Twilight
Astronomical Twilight
Moon
Length of Visible Light
Length of Day
Tomorrow will be .
, % of the Moon is Illuminated

Today's Extremes

State Highs State Lows

Community

WunderPhotos

Upload Photos

1,927,814 photos uploaded!

WunderBlog® & News

Nearby

Air Quality

  Air Quality AQ Index Pollutant
Not available.

Snow Depth

Station Depth Elevation

Earthquake Activity

City Distance Mag. Time & Date
Minimum magnitude displayed is 2.5.

Coastal Water Temperatures

Place Temperature

Stations

Nearby Weather Stations

Station Location Temp. Windchill Dew Point Humidity Wind Precip. Elev Updated Type
                   

Watches & Warnings

There are currently no watches in effect.